X  Sluiten METAR luchtvaart weer gegevens      EHAM Amsterdam Airport Schiphol
Temperatuur
1°C Temperatuur
0°C Dauwpunt
93% Vochtigheid



Wind
3 KM/U
2 MPH
1 M/S
2 KTS



310°
NW
Huidig weer

Shallow Mist Shallow Mist
Luchtdruk 1028.92 (hPa) - 30.38 (inHg)
Zicht 5.6 (mijl) - 9 (km)
Vliegveld
Vliegveld code EHAM

Locatie : Amsterdam Airport Schiphol
Afstand: 20 (km)

Metar:
EHAM 230425Z 31002KT 9000 MIFG FEW018 01/00 Q1029 NOSIG

Tijd: 23-04-2021 06:25 CEST